Time;durP1;ratioP1;P1;durP2;ratioP2;P2;SDS_P1;SDS_P2;PMS_P1;PMS_P2;Temp;Humidity;BMP_temperature;BMP_pressure;BME280_temperature;BME280_humidity;BME280_pressure;Samples;Min_cycle;Max_cycle;Signal;HPM_P1;HPM_P2
2022/09/13 00:00:41;;;;;;;16.95;12.10;;;;;;;15.32;54.95;100874.88;4982795;28;20579;-77
2022/09/13 00:03:08;;;;;;;19.70;12.40;;;;;;;15.18;55.29;100868.63;4973148;28;20074;-77
2022/09/13 00:05:35;;;;;;;15.35;11.80;;;;;;;15.30;55.15;100864.44;4938944;28;20030;-77
2022/09/13 00:08:00;;;;;;;15.77;10.65;;;;;;;15.35;55.16;100851.03;4971719;28;20042;-79
2022/09/13 00:10:26;;;;;;;13.65;9.80;;;;;;;15.39;55.01;100847.22;4963676;28;20448;-77
2022/09/13 00:12:52;;;;;;;15.18;10.07;;;;;;;15.40;55.11;100846.31;4971951;28;20480;-77
2022/09/13 00:15:18;;;;;;;17.95;11.05;;;;;;;15.40;54.75;100851.59;4980323;28;20117;-78
2022/09/13 00:17:44;;;;;;;17.58;11.57;;;;;;;15.41;54.85;100849.78;4963472;28;20062;-78
2022/09/13 00:20:10;;;;;;;16.50;12.63;;;;;;;15.12;55.68;100855.81;4961956;28;20041;-77
2022/09/13 00:22:36;;;;;;;19.52;12.40;;;;;;;15.20;55.73;100857.19;4980895;28;20054;-77
2022/09/13 00:25:03;;;;;;;18.40;12.55;;;;;;;15.23;55.54;100854.38;4961336;28;20045;-77
2022/09/13 00:27:29;;;;;;;20.83;11.88;;;;;;;15.29;55.39;100851.38;4957945;28;20054;-77
2022/09/13 00:29:54;;;;;;;16.73;11.63;;;;;;;15.12;55.88;100854.97;4960327;28;20031;-77
2022/09/13 00:32:20;;;;;;;25.75;12.73;;;;;;;15.18;56.08;100849.34;4948117;28;20043;-77
2022/09/13 00:34:45;;;;;;;16.02;11.40;;;;;;;14.73;57.27;100849.34;4975723;28;20058;-77
2022/09/13 00:37:11;;;;;;;17.83;12.32;;;;;;;14.97;56.84;100846.22;4946905;28;20444;-77
2022/09/13 00:39:36;;;;;;;18.50;12.63;;;;;;;15.05;56.46;100835.25;4959843;28;20504;-76
2022/09/13 00:42:02;;;;;;;26.45;12.82;;;;;;;14.54;57.78;100846.06;4964582;28;20104;-76
2022/09/13 00:44:59;;;;;;;18.02;12.30;;;;;;;14.76;57.26;100833.38;4963859;28;20126;-76
2022/09/13 00:47:52;;;;;;;19.15;11.15;;;;;;;14.84;57.85;100829.47;4971796;28;20039;-77
2022/09/13 00:50:29;;;;;;;18.00;12.55;;;;;;;14.82;57.46;100828.72;4944347;28;20023;-77
2022/09/13 00:53:00;;;;;;;18.80;12.77;;;;;;;15.05;57.03;100828.19;4951214;28;20071;-78
2022/09/13 00:55:55;;;;;;;20.42;10.82;;;;;;;15.07;56.81;100826.31;4961098;28;20219;-75
2022/09/13 00:58:46;;;;;;;20.73;12.07;;;;;;;15.17;56.67;100819.56;4942862;28;20604;-77
2022/09/13 01:01:13;;;;;;;21.90;12.53;;;;;;;15.09;57.06;100808.63;4947321;28;20124;-76
2022/09/13 01:03:41;;;;;;;18.95;11.63;;;;;;;14.47;58.54;100815.81;4945663;28;20069;-76
2022/09/13 01:06:17;;;;;;;18.92;11.88;;;;;;;14.82;58.22;100815.56;4966557;28;20144;-76
2022/09/13 01:08:48;;;;;;;18.10;11.30;;;;;;;14.44;59.29;100802.84;4953462;28;20053;-74
2022/09/13 01:11:26;;;;;;;19.20;11.10;;;;;;;14.20;59.95;100802.44;4970371;28;20121;-76
2022/09/13 01:13:53;;;;;;;20.05;12.38;;;;;;;14.02;61.29;100796.41;4976180;28;20124;-75
2022/09/13 01:16:19;;;;;;;17.50;11.02;;;;;;;14.33;60.31;100798.16;4966631;28;20030;-76
2022/09/13 01:18:44;;;;;;;17.15;10.93;;;;;;;14.53;59.66;100791.78;4967078;28;20038;-75
2022/09/13 01:21:16;;;;;;;19.60;10.57;;;;;;;14.10;61.28;100792.44;4969356;28;20388;-75
2022/09/13 01:24:12;;;;;;;20.73;10.98;;;;;;;14.68;59.25;100792.66;4966275;28;20092;-74
2022/09/13 01:27:02;;;;;;;17.60;11.25;;;;;;;14.45;60.20;100776.44;4989493;28;20034;-77
2022/09/13 01:29:42;;;;;;;18.58;9.88;;;;;;;14.08;61.10;100769.81;4984167;28;20034;-77
2022/09/13 01:32:32;;;;;;;17.10;10.57;;;;;;;14.50;59.88;100773.53;4980724;28;20154;-76
2022/09/13 01:35:17;;;;;;;18.88;10.32;;;;;;;14.58;59.47;100776.59;4966957;28;20065;-78
2022/09/13 01:37:42;;;;;;;16.75;10.52;;;;;;;14.26;60.61;100776.63;4999000;28;20637;-75
2022/09/13 01:40:18;;;;;;;17.27;10.73;;;;;;;14.51;59.93;100775.25;4966183;28;20046;-75
2022/09/13 01:43:01;;;;;;;18.08;10.35;;;;;;;14.44;60.27;100768.66;5015026;28;20293;-77
2022/09/13 01:45:40;;;;;;;20.20;11.45;;;;;;;14.69;59.36;100774.16;4966509;28;20045;-76
2022/09/13 01:48:15;;;;;;;20.83;10.80;;;;;;;14.74;59.34;100764.22;4982965;28;20145;-76
2022/09/13 01:50:51;;;;;;;14.30;10.07;;;;;;;14.81;59.46;100766.47;4973581;28;20034;-76
2022/09/13 01:53:49;;;;;;;22.80;11.35;;;;;;;14.74;59.25;100760.75;4982372;28;20034;-76
2022/09/13 01:56:31;;;;;;;17.83;10.43;;;;;;;14.90;58.95;100756.28;4988543;28;20130;-77
2022/09/13 01:59:24;;;;;;;20.67;12.00;;;;;;;15.13;58.42;100761.94;4986655;28;20042;-77
2022/09/13 02:02:04;;;;;;;22.25;12.43;;;;;;;15.01;58.82;100758.22;4951123;28;20045;-75
2022/09/13 02:04:39;;;;;;;26.15;12.60;;;;;;;14.90;59.21;100766.81;4986563;28;20040;-78
2022/09/13 02:07:13;;;;;;;16.80;12.50;;;;;;;15.02;58.99;100762.56;4984598;28;20053;-76
2022/09/13 02:09:42;;;;;;;17.80;10.52;;;;;;;15.10;58.55;100762.09;5019279;22;20113;-69
2022/09/13 02:12:20;;;;;;;19.45;11.45;;;;;;;14.86;59.39;100767.09;4972408;28;20042;-72
2022/09/13 02:14:53;;;;;;;21.05;12.32;;;;;;;14.76;59.80;100754.44;4974678;28;20094;-72
2022/09/13 02:17:26;;;;;;;18.00;11.73;;;;;;;14.46;60.95;100751.84;4975515;28;20134;-70
2022/09/13 02:19:57;;;;;;;21.88;12.35;;;;;;;14.53;60.55;100763.72;4975913;28;20026;-70
2022/09/13 02:22:30;;;;;;;19.52;11.43;;;;;;;14.19;62.03;100753.41;4979354;28;20461;-70
2022/09/13 02:25:03;;;;;;;14.63;10.25;;;;;;;14.43;61.48;100756.44;4972191;28;20138;-71
2022/09/13 02:27:32;;;;;;;19.23;10.80;;;;;;;14.51;61.31;100754.22;4974196;28;20034;-71
2022/09/13 02:30:05;;;;;;;20.38;10.82;;;;;;;14.40;61.71;100757.44;4992475;28;20049;-71
2022/09/13 02:32:37;;;;;;;16.40;10.85;;;;;;;14.52;61.58;100758.53;4991606;28;20035;-71
2022/09/13 02:35:08;;;;;;;17.65;10.20;;;;;;;14.81;60.70;100755.97;4974638;28;20045;-70
2022/09/13 02:37:37;;;;;;;17.63;10.60;;;;;;;14.81;60.46;100750.69;4975515;28;20053;-71
2022/09/13 02:40:09;;;;;;;21.55;11.18;;;;;;;14.80;60.88;100754.28;4976879;28;20037;-72
2022/09/13 02:42:42;;;;;;;22.90;11.63;;;;;;;14.70;61.08;100760.09;4977787;28;20633;-71
2022/09/13 02:45:10;;;;;;;20.88;11.32;;;;;;;14.49;62.35;100756.94;4974705;28;20053;-69
2022/09/13 02:47:49;;;;;;;16.15;10.82;;;;;;;14.84;60.95;100761.06;4974994;28;20466;-71
2022/09/13 02:50:45;;;;;;;15.25;11.00;;;;;;;14.89;60.82;100759.81;4981976;28;20634;-71
2022/09/13 02:53:25;;;;;;;13.45;9.02;;;;;;;14.64;61.79;100770.97;4972627;28;20047;-71
2022/09/13 02:56:09;;;;;;;15.38;9.57;;;;;;;15.00;60.95;100766.25;4975974;28;20026;-73
2022/09/13 02:58:45;;;;;;;;;;;;;;;14.92;60.96;100758.78;4966306;28;20041;-72
2022/09/13 03:01:12;;;;;;;12.43;8.07;;;;;;;15.02;60.80;100759.94;4976068;28;20266;-70
2022/09/13 03:03:38;;;;;;;13.57;9.90;;;;;;;14.91;60.95;100759.75;4972557;28;21794;-71
2022/09/13 03:06:03;;;;;;;13.88;8.45;;;;;;;14.99;60.97;100765.38;4975208;28;20102;-72
2022/09/13 03:08:29;;;;;;;10.02;6.60;;;;;;;15.24;60.33;100763.91;4972081;28;22342;-72
2022/09/13 03:11:07;;;;;;;12.07;7.25;;;;;;;15.30;60.25;100760.91;4974022;28;20045;-73
2022/09/13 03:13:35;;;;;;;8.35;5.65;;;;;;;15.38;59.91;100762.13;4973170;28;20062;-73
2022/09/13 03:16:32;;;;;;;11.68;6.72;;;;;;;15.34;59.98;100763.25;4967013;28;20526;-74
2022/09/13 03:19:00;;;;;;;11.02;5.78;;;;;;;15.51;59.55;100766.66;4982539;28;20125;-69
2022/09/13 03:21:45;;;;;;;10.25;5.93;;;;;;;15.47;59.58;100768.63;4972849;28;20037;-71
2022/09/13 03:24:31;;;;;;;8.23;5.65;;;;;;;15.50;59.62;100768.41;4971079;28;20050;-69
2022/09/13 03:27:02;;;;;;;7.28;5.15;;;;;;;15.53;59.45;100772.66;4973309;28;20047;-71
2022/09/13 03:29:39;;;;;;;10.13;4.82;;;;;;;15.56;59.45;100764.56;4972829;28;20046;-70
2022/09/13 03:32:10;;;;;;;7.88;4.90;;;;;;;15.57;59.44;100767.09;4966095;28;20438;-71
2022/09/13 03:34:52;;;;;;;6.60;3.55;;;;;;;15.62;59.14;100755.41;4972125;28;20118;-69
2022/09/13 03:37:31;;;;;;;4.93;3.55;;;;;;;15.65;59.29;100763.97;4975499;28;20153;-71
2022/09/13 03:40:06;;;;;;;7.15;3.65;;;;;;;15.70;59.21;100763.69;4978228;28;20099;-71
2022/09/13 03:43:14;;;;;;;7.05;3.38;;;;;;;15.64;59.03;100767.56;4986023;28;20545;-72
2022/09/13 03:45:47;;;;;;;8.45;3.47;;;;;;;15.48;59.12;100759.78;4966391;28;20050;-70
2022/09/13 03:48:14;;;;;;;6.45;2.45;;;;;;;15.40;59.55;100754.13;4971175;28;20498;-70
2022/09/13 03:50:40;;;;;;;3.53;2.38;;;;;;;15.54;59.06;100753.28;4972995;28;20117;-70
2022/09/13 03:53:10;;;;;;;4.10;2.63;;;;;;;15.52;59.13;100757.78;4973552;28;20113;-70
2022/09/13 03:55:40;;;;;;;3.70;2.20;;;;;;;15.48;58.95;100756.28;4959369;28;20060;-71
2022/09/13 03:58:06;;;;;;;6.28;2.40;;;;;;;15.35;59.03;100764.13;4973666;28;20046;-70
2022/09/13 04:00:32;;;;;;;6.03;2.78;;;;;;;15.33;59.26;100764.22;4975102;28;20061;-71
2022/09/13 04:02:58;;;;;;;5.30;1.38;;;;;;;15.48;59.16;100770.31;4991612;28;20495;-76
2022/09/13 04:05:23;;;;;;;3.85;1.55;;;;;;;15.51;59.15;100778.03;4978813;28;20085;-72
2022/09/13 04:08:14;;;;;;;4.82;2.33;;;;;;;15.59;58.93;100770.50;4973933;28;20097;-73
2022/09/13 04:10:40;;;;;;;5.10;1.95;;;;;;;15.60;59.01;100773.97;4977318;28;20046;-70
2022/09/13 04:13:05;;;;;;;4.15;2.25;;;;;;;15.46;58.73;100768.69;4973414;28;20042;-69
2022/09/13 04:15:31;;;;;;;5.30;2.35;;;;;;;15.41;59.04;100768.16;4974746;28;20035;-71
2022/09/13 04:17:57;;;;;;;4.43;1.90;;;;;;;15.44;59.09;100771.44;4972710;28;20085;-72
2022/09/13 04:20:23;;;;;;;5.60;2.35;;;;;;;15.42;59.22;100773.31;4981829;28;20088;-71
2022/09/13 04:22:58;;;;;;;5.40;2.22;;;;;;;15.44;59.15;100781.97;4977143;28;20106;-76
2022/09/13 04:25:24;;;;;;;3.95;2.25;;;;;;;15.41;59.29;100771.63;5010012;28;20207;-73
2022/09/13 04:27:54;;;;;;;4.40;3.28;;;;;;;15.48;59.12;100777.34;4974461;28;20050;-69
2022/09/13 04:30:20;;;;;;;3.97;1.88;;;;;;;15.41;59.22;100776.88;4980059;28;20408;-71
2022/09/13 04:32:46;;;;;;;6.43;2.42;;;;;;;15.42;59.36;100786.50;4987321;28;20054;-72
2022/09/13 04:35:12;;;;;;;4.75;3.17;;;;;;;15.52;59.09;100782.34;4979995;28;20550;-71
2022/09/13 04:37:38;;;;;;;4.38;2.85;;;;;;;15.40;59.29;100780.47;4974835;28;20555;-71
2022/09/13 04:40:07;;;;;;;5.90;2.83;;;;;;;15.33;59.60;100779.16;4979690;28;20034;-74
2022/09/13 04:42:34;;;;;;;5.90;2.90;;;;;;;15.37;59.68;100780.66;4976796;28;20043;-69
2022/09/13 04:44:59;;;;;;;4.72;2.20;;;;;;;15.42;59.70;100770.69;4978305;28;20073;-69
2022/09/13 04:47:24;;;;;;;6.88;2.45;;;;;;;15.45;59.60;100782.81;4973673;28;20088;-71
2022/09/13 04:49:50;;;;;;;4.72;2.08;;;;;;;15.52;59.41;100774.44;4980236;28;20264;-72
2022/09/13 04:52:15;;;;;;;7.50;1.65;;;;;;;15.56;59.25;100770.66;4982222;28;20361;-71
2022/09/13 04:54:41;;;;;;;6.03;1.98;;;;;;;15.58;59.24;100771.41;4978357;28;20025;-71
2022/09/13 04:57:07;;;;;;;2.67;1.38;;;;;;;15.58;59.15;100774.06;4968720;28;20058;-72
2022/09/13 04:59:32;;;;;;;6.25;1.90;;;;;;;15.63;59.54;100776.41;4977922;28;20593;-70
2022/09/13 05:01:58;;;;;;;2.80;1.45;;;;;;;15.70;59.19;100774.22;4989631;28;20039;-69
2022/09/13 05:04:23;;;;;;;5.63;1.70;;;;;;;15.71;59.24;100779.41;4989105;28;20126;-68
2022/09/13 05:06:49;;;;;;;5.45;1.20;;;;;;;15.70;59.10;100776.84;4976137;28;20034;-72
2022/09/13 05:09:15;;;;;;;3.63;1.48;;;;;;;15.69;59.08;100785.72;4980956;28;20037;-69
2022/09/13 05:11:41;;;;;;;3.33;0.77;;;;;;;15.33;59.80;100794.97;4973454;28;20074;-72
2022/09/13 05:14:09;;;;;;;1.85;0.60;;;;;;;15.47;59.39;100802.84;4977081;28;20057;-72
2022/09/13 05:16:35;;;;;;;2.10;0.20;;;;;;;15.41;59.42;100815.56;4975653;28;20175;-70
2022/09/13 05:19:01;;;;;;;3.00;0.35;;;;;;;15.41;59.30;100816.38;4979567;28;20030;-69
2022/09/13 05:21:28;;;;;;;3.30;0.30;;;;;;;15.38;59.11;100811.31;4977962;28;20039;-72
2022/09/13 05:23:55;;;;;;;3.33;0.57;;;;;;;15.23;59.58;100813.09;4991897;28;20038;-70
2022/09/13 05:26:30;;;;;;;2.97;0.50;;;;;;;15.33;59.23;100810.75;4976496;28;20061;-71
2022/09/13 05:28:59;;;;;;;3.05;0.80;;;;;;;15.37;59.45;100812.25;4980524;28;20069;-70
2022/09/13 05:31:30;;;;;;;6.40;0.60;;;;;;;15.33;59.47;100816.03;4975703;28;20109;-68
2022/09/13 05:33:58;;;;;;;3.90;0.22;;;;;;;15.28;59.58;100818.94;4969779;28;20049;-73
2022/09/13 05:36:25;;;;;;;3.15;0.30;;;;;;;15.26;59.67;100818.19;4976712;28;20034;-72
2022/09/13 05:38:52;;;;;;;2.55;0.35;;;;;;;15.26;59.69;100815.56;4983936;28;20050;-72
2022/09/13 05:41:20;;;;;;;2.67;0.30;;;;;;;15.30;59.61;100817.03;4976773;28;20038;-72
2022/09/13 05:43:45;;;;;;;13.10;1.17;;;;;;;15.26;59.42;100826.09;4974358;28;20116;-71
2022/09/13 05:46:17;;;;;;;6.40;0.40;;;;;;;15.21;59.43;100827.25;4975229;28;20042;-72
2022/09/13 05:48:43;;;;;;;3.30;0.52;;;;;;;15.32;59.69;100822.22;4988274;28;20069;-73
2022/09/13 05:51:15;;;;;;;2.70;0.50;;;;;;;15.40;59.31;100821.78;4980996;28;20067;-73
2022/09/13 05:53:44;;;;;;;3.95;0.43;;;;;;;15.43;59.01;100819.78;4944583;28;20131;-70
2022/09/13 05:56:12;;;;;;;4.47;0.55;;;;;;;15.50;59.15;100823.72;4975866;28;20106;-70
2022/09/13 05:58:39;;;;;;;1.83;0.43;;;;;;;15.46;58.99;100821.38;4989068;28;20038;-70
2022/09/13 06:01:04;;;;;;;5.57;0.55;;;;;;;15.53;58.95;100823.56;4969000;28;20494;-72
2022/09/13 06:03:29;;;;;;;2.67;0.50;;;;;;;15.61;58.96;100822.22;4983550;28;20068;-71
2022/09/13 06:05:56;;;;;;;5.20;0.40;;;;;;;15.69;58.54;100833.13;4975046;28;20026;-71
2022/09/13 06:08:24;;;;;;;1.98;0.40;;;;;;;15.86;58.29;100819.72;4972365;28;20618;-71
2022/09/13 06:10:56;;;;;;;4.35;0.55;;;;;;;16.02;58.07;100824.94;4979163;28;20026;-72
2022/09/13 06:13:22;;;;;;;8.15;0.73;;;;;;;16.06;57.90;100825.56;4973798;28;20610;-70
2022/09/13 06:15:48;;;;;;;3.65;0.28;;;;;;;16.25;57.53;100823.44;4974505;28;20026;-70
2022/09/13 06:18:13;;;;;;;6.22;0.55;;;;;;;16.02;56.98;100818.78;4984838;28;20513;-71
2022/09/13 06:20:39;;;;;;;2.85;0.40;;;;;;;16.20;57.32;100826.38;4973937;28;20046;-70
2022/09/13 06:23:04;;;;;;;8.65;1.05;;;;;;;16.18;56.69;100822.16;4977195;28;20049;-71
2022/09/13 06:25:30;;;;;;;1.42;0.30;;;;;;;16.24;56.89;100823.53;4968394;28;20121;-71
2022/09/13 06:27:55;;;;;;;6.30;0.40;;;;;;;16.42;56.73;100828.47;4980031;28;20042;-73
2022/09/13 06:30:21;;;;;;;5.78;0.70;;;;;;;16.48;55.96;100831.63;4975981;28;20479;-71
2022/09/13 06:32:46;;;;;;;11.32;0.68;;;;;;;16.37;56.34;100833.16;4976644;28;20045;-71
2022/09/13 06:35:15;;;;;;;2.63;0.30;;;;;;;16.53;56.43;100826.91;4985744;28;20121;-70
2022/09/13 06:37:45;;;;;;;6.85;0.52;;;;;;;16.43;56.18;100831.94;4972123;28;20157;-73
2022/09/13 06:40:12;;;;;;;8.85;0.40;;;;;;;16.51;55.71;100824.38;4984389;28;20161;-71
2022/09/13 06:42:38;;;;;;;5.80;0.35;;;;;;;16.47;55.45;100830.81;4976643;28;20058;-72
2022/09/13 06:45:04;;;;;;;6.22;0.82;;;;;;;16.76;54.91;100836.81;4976925;28;20042;-70
2022/09/13 06:47:32;;;;;;;8.77;0.40;;;;;;;17.07;54.04;100841.81;4973154;28;20035;-71
2022/09/13 06:49:59;;;;;;;6.00;0.40;;;;;;;17.25;53.82;100843.22;4974987;28;20060;-71
2022/09/13 06:52:26;;;;;;;5.13;0.30;;;;;;;17.43;54.14;100839.28;4976626;28;20047;-71
2022/09/13 06:54:52;;;;;;;5.45;0.43;;;;;;;17.65;52.95;100830.72;4977030;28;20053;-72
2022/09/13 06:57:18;;;;;;;5.13;0.50;;;;;;;17.90;51.46;100828.97;4967279;28;20066;-71
2022/09/13 06:59:43;;;;;;;3.95;0.77;;;;;;;18.52;51.32;100829.78;4976222;28;20093;-71
2022/09/13 07:02:09;;;;;;;1.65;0.75;;;;;;;21.41;47.30;100834.03;4973212;28;20042;-70
2022/09/13 07:04:35;;;;;;;4.68;0.43;;;;;;;23.18;38.99;100824.22;4974878;28;20042;-70
2022/09/13 07:07:00;;;;;;;4.55;0.20;;;;;;;24.70;35.98;100824.59;4972786;28;20046;-70
2022/09/13 07:09:26;;;;;;;4.68;0.10;;;;;;;25.47;33.61;100836.28;4974649;28;20721;-69
2022/09/13 07:11:54;;;;;;;0.98;0.13;;;;;;;27.22;32.75;100834.50;4957231;28;20042;-71
2022/09/13 07:14:22;;;;;;;4.38;0.30;;;;;;;28.58;28.58;100828.72;4988557;28;20034;-70
2022/09/13 07:16:48;;;;;;;4.53;0.40;;;;;;;27.44;28.42;100833.75;4967531;28;20070;-70
2022/09/13 07:19:19;;;;;;;8.63;0.30;;;;;;;28.39;29.15;100838.13;4990999;28;20027;-71
2022/09/13 07:21:45;;;;;;;9.48;0.32;;;;;;;27.25;28.32;100834.16;4972973;28;20030;-70
2022/09/13 07:24:11;;;;;;;6.88;0.45;;;;;;;26.89;28.98;100845.28;4988284;28;20037;-70
2022/09/13 07:26:36;;;;;;;3.40;0.20;;;;;;;24.97;31.36;100842.38;4974188;28;20041;-71
2022/09/13 07:29:05;;;;;;;5.30;0.20;;;;;;;23.86;32.88;100847.19;4972698;28;20038;-70
2022/09/13 07:31:42;;;;;;;2.13;0.22;;;;;;;25.11;31.30;100842.78;4972652;28;20460;-71
2022/09/13 07:34:16;;;;;;;5.05;0.20;;;;;;;26.59;29.43;100850.34;4983756;28;20038;-69
2022/09/13 07:36:43;;;;;;;5.63;0.22;;;;;;;27.48;26.76;100848.50;4982988;28;20641;-71
2022/09/13 07:39:09;;;;;;;6.68;0.60;;;;;;;27.83;25.87;100848.19;4974100;28;20045;-70
2022/09/13 07:41:35;;;;;;;3.30;0.28;;;;;;;27.40;27.39;100845.84;4976003;28;20026;-70
2022/09/13 07:44:03;;;;;;;3.40;0.60;;;;;;;26.94;26.17;100842.09;4973692;28;20027;-70
2022/09/13 07:46:31;;;;;;;6.50;0.63;;;;;;;26.96;27.15;100842.75;4973329;28;20022;-71
2022/09/13 07:48:57;;;;;;;2.35;0.22;;;;;;;26.43;26.49;100842.28;4975360;28;20050;-70
2022/09/13 07:51:29;;;;;;;5.70;0.20;;;;;;;27.36;25.98;100849.88;4971721;28;20642;-70
2022/09/13 07:53:56;;;;;;;;;;;;;;;26.75;26.24;100851.34;4972277;28;20514;-71
2022/09/13 07:56:33;;;;;;;3.00;0.20;;;;;;;26.93;27.21;100846.63;4972242;28;19922;-69
2022/09/13 07:59:00;;;;;;;3.75;0.52;;;;;;;26.71;26.13;100856.19;4970075;28;20046;-72
2022/09/13 08:01:28;;;;;;;3.10;0.20;;;;;;;26.40;25.96;100861.34;4973882;28;20112;-69
2022/09/13 08:03:56;;;;;;;4.88;0.28;;;;;;;26.13;26.29;100865.16;4967091;28;20053;-70
2022/09/13 08:06:23;;;;;;;2.88;0.50;;;;;;;26.55;26.58;100858.84;4986544;28;20027;-70
2022/09/13 08:08:48;;;;;;;4.10;0.50;;;;;;;26.33;27.34;100865.69;4971668;28;20126;-70
2022/09/13 08:11:19;;;;;;;4.82;0.30;;;;;;;26.73;26.26;100866.75;4978376;28;20085;-71
2022/09/13 08:13:46;;;;;;;4.65;0.38;;;;;;;26.36;26.59;100876.06;4974046;28;20046;-69
2022/09/13 08:16:12;;;;;;;4.25;0.20;;;;;;;26.37;25.90;100877.75;4976564;28;20458;-71
2022/09/13 08:18:45;;;;;;;2.25;0.20;;;;;;;25.85;26.36;100868.91;4982063;28;20057;-69
2022/09/13 08:21:11;;;;;;;3.40;0.20;;;;;;;26.47;25.41;100867.75;4972839;28;20046;-69
2022/09/13 08:23:36;;;;;;;5.10;0.57;;;;;;;27.21;24.56;100871.25;4958423;28;20113;-69
2022/09/13 08:26:03;;;;;;;3.22;0.13;;;;;;;27.53;24.86;100872.97;4973558;28;20026;-70
2022/09/13 08:28:30;;;;;;;2.10;0.45;;;;;;;27.91;24.17;100877.69;4973959;28;20043;-69
2022/09/13 08:31:12;;;;;;;8.00;0.98;;;;;;;27.17;24.42;100874.44;4974887;28;20027;-69
2022/09/13 08:33:38;;;;;;;2.58;0.10;;;;;;;25.40;26.51;100877.25;4972318;28;20066;-68
2022/09/13 08:36:04;;;;;;;1.23;0.20;;;;;;;22.26;29.84;100887.81;4981561;28;20086;-71
2022/09/13 08:38:31;;;;;;;10.32;0.40;;;;;;;21.28;31.96;100882.09;4989531;28;20444;-68
2022/09/13 08:41:18;;;;;;;2.85;0.63;;;;;;;22.16;30.46;100893.97;4987639;28;20032;-68
2022/09/13 08:44:02;;;;;;;3.45;0.20;;;;;;;22.17;29.91;100885.00;4993833;28;20048;-70
2022/09/13 08:46:42;;;;;;;7.82;0.20;;;;;;;21.81;32.01;100888.25;4986645;28;20135;-69
2022/09/13 08:49:18;;;;;;;12.63;0.30;;;;;;;22.98;28.92;100879.41;4973914;28;21088;-69
2022/09/13 08:51:58;;;;;;;4.18;0.10;;;;;;;21.58;30.17;100888.44;4973985;28;20597;-70
2022/09/13 08:54:24;;;;;;;3.30;0.60;;;;;;;20.98;31.00;100895.34;4978204;28;20084;-69
2022/09/13 08:57:02;;;;;;;6.40;0.20;;;;;;;19.94;32.74;100900.16;4973064;28;20039;-69
2022/09/13 08:59:58;;;;;;;3.30;0.20;;;;;;;18.77;35.42;100903.78;4973848;28;20081;-70
2022/09/13 09:02:45;;;;;;;5.93;0.20;;;;;;;19.48;34.83;100894.00;4973547;28;20097;-70
2022/09/13 09:05:25;;;;;;;2.92;0.15;;;;;;;19.27;34.32;100904.44;4970847;28;20023;-70
2022/09/13 09:08:02;;;;;;;0.80;0.10;;;;;;;19.80;34.39;100905.72;4971441;28;20073;-70
2022/09/13 09:10:35;;;;;;;3.25;0.10;;;;;;;19.63;33.41;100907.88;4973655;28;20921;-70
2022/09/13 09:13:31;;;;;;;4.50;0.15;;;;;;;19.76;33.00;100906.94;4976292;28;20077;-69
2022/09/13 09:16:01;;;;;;;5.55;0.10;;;;;;;20.09;34.00;100903.41;4972153;28;20816;-70
2022/09/13 09:18:32;;;;;;;4.57;0.20;;;;;;;21.62;31.91;100903.13;4986887;28;20047;-70
2022/09/13 09:20:59;;;;;;;1.00;0.20;;;;;;;22.09;29.80;100897.31;4975640;28;20038;-69
2022/09/13 09:23:31;;;;;;;1.20;0.10;;;;;;;22.07;29.83;100896.56;4990869;28;20122;-69
2022/09/13 09:26:07;;;;;;;;;;;;;;;22.93;29.10;100897.66;4992542;28;20030;-71
2022/09/13 09:28:33;;;;;;;1.35;0.10;;;;;;;21.53;28.86;100907.44;4975378;28;19926;-72
2022/09/13 09:31:13;;;;;;;4.95;0.15;;;;;;;20.98;30.84;100900.66;4978851;28;20030;-71
2022/09/13 09:34:03;;;;;;;5.03;0.47;;;;;;;21.61;29.51;100904.13;4974810;28;20055;-70
2022/09/13 09:36:43;;;;;;;2.38;0.10;;;;;;;22.03;29.24;100896.00;4975334;28;20026;-70
2022/09/13 09:39:12;;;;;;;2.28;0.43;;;;;;;21.94;28.76;100895.00;4975757;28;20512;-71
2022/09/13 09:41:37;;;;;;;2.17;0.10;;;;;;;22.01;29.38;100897.97;4976085;28;20046;-70
2022/09/13 09:44:06;;;;;;;2.50;0.10;;;;;;;20.59;31.31;100895.81;4982787;28;20446;-70
2022/09/13 09:46:36;;;;;;;5.95;0.90;;;;;;;20.22;31.92;100898.00;4974709;28;20086;-71
2022/09/13 09:50:07;;;;;;;2.70;0.17;;;;;;;19.51;33.09;100895.56;4974528;28;20043;-69
2022/09/13 09:51:59;;;;;;;2.08;0.30;;;;;;;19.72;32.82;100903.66;4964874;28;20739;-71
2022/09/13 09:54:28;;;;;;;3.38;0.20;;;;;;;19.72;32.73;100890.41;4955822;28;20054;-69
2022/09/13 09:56:54;;;;;;;2.75;0.73;;;;;;;19.45;33.86;100894.22;4957852;28;20129;-69
2022/09/13 09:59:32;;;;;;;5.63;0.30;;;;;;;20.25;32.39;100897.75;4973335;28;20629;-70
2022/09/13 10:02:12;;;;;;;2.60;0.30;;;;;;;20.90;32.31;100891.50;4973534;28;20056;-71
2022/09/13 10:04:39;;;;;;;0.75;0.05;;;;;;;21.82;30.60;100895.22;4972502;28;20035;-69
2022/09/13 10:07:32;;;;;;;3.10;0.30;;;;;;;21.59;28.88;100895.44;4966550;28;21727;-70
2022/09/13 10:10:01;;;;;;;3.65;0.82;;;;;;;22.42;30.25;100898.75;4973304;28;20054;-69
2022/09/13 10:12:30;;;;;;;4.45;0.10;;;;;;;23.06;28.14;100889.38;4966130;28;20109;-70
2022/09/13 10:15:31;;;;;;;4.22;0.30;;;;;;;23.05;27.44;100884.19;4973275;28;20089;-69
2022/09/13 10:18:28;;;;;;;6.47;0.10;;;;;;;23.02;26.63;100890.66;4966705;28;20141;-70
2022/09/13 10:21:18;;;;;;;5.93;0.10;;;;;;;22.69;27.92;100894.59;4970725;28;20136;-70
2022/09/13 10:23:49;;;;;;;1.25;0.10;;;;;;;23.00;27.02;100893.44;4989263;28;20045;-70
2022/09/13 10:26:20;;;;;;;3.42;0.20;;;;;;;23.67;26.52;100882.75;4974945;28;20399;-70
2022/09/13 10:29:06;;;;;;;0.95;0.30;;;;;;;24.03;26.93;100890.88;4971222;28;20062;-71
2022/09/13 10:31:37;;;;;;;1.50;0.10;;;;;;;24.00;26.51;100892.03;4972213;28;20458;-71
2022/09/13 10:34:15;;;;;;;;;;;;;;;23.77;25.88;100877.41;4977407;28;20118;-70
2022/09/13 10:37:03;;;;;;;2.78;0.88;;;;;;;24.67;24.71;100882.88;4979547;28;19918;-69
2022/09/13 10:39:31;;;;;;;3.60;0.43;;;;;;;23.75;26.01;100877.53;4969095;28;20030;-69
2022/09/13 10:41:59;;;;;;;3.35;0.20;;;;;;;23.20;25.88;100883.59;4975474;28;20050;-69
2022/09/13 10:44:32;;;;;;;1.83;0.38;;;;;;;23.05;26.70;100878.84;4977258;28;20117;-70
2022/09/13 10:47:02;;;;;;;2.38;0.10;;;;;;;21.91;28.01;100889.09;4990087;28;20343;-70
2022/09/13 10:49:55;;;;;;;2.28;0.20;;;;;;;22.21;27.32;100882.06;4974764;28;20121;-70
2022/09/13 10:52:31;;;;;;;5.40;0.40;;;;;;;22.99;26.93;100875.78;4976605;28;20043;-70
2022/09/13 10:55:31;;;;;;;5.22;0.17;;;;;;;23.09;25.87;100880.25;4976808;28;20045;-69
2022/09/13 10:58:06;;;;;;;3.45;0.10;;;;;;;22.82;25.91;100879.16;4971091;28;20078;-69
2022/09/13 11:00:50;;;;;;;5.05;0.10;;;;;;;22.47;27.25;100869.91;4987925;28;20165;-70
2022/09/13 11:03:30;;;;;;;1.50;0.10;;;;;;;23.76;26.95;100871.19;4973450;28;20106;-70
2022/09/13 11:06:20;;;;;;;2.58;0.10;;;;;;;22.56;26.51;100882.38;4975791;28;20449;-70
2022/09/13 11:08:45;;;;;;;1.95;0.10;;;;;;;22.34;27.87;100882.66;4986728;28;20496;-69
2022/09/13 11:11:24;;;;;;;5.07;0.35;;;;;;;22.69;27.46;100887.44;4974288;28;20121;-69
2022/09/13 11:13:56;;;;;;;2.55;0.30;;;;;;;22.54;26.69;100881.69;4963796;28;20049;-69
2022/09/13 11:16:49;;;;;;;1.95;0.17;;;;;;;23.56;26.35;100888.28;4974942;28;20034;-70
2022/09/13 11:19:33;;;;;;;4.00;0.50;;;;;;;24.13;24.97;100881.00;4976564;28;20107;-69
2022/09/13 11:22:07;;;;;;;2.17;0.10;;;;;;;23.74;25.47;100875.00;4971315;28;20089;-69
2022/09/13 11:24:33;;;;;;;3.65;0.20;;;;;;;23.45;25.87;100877.78;4976565;28;20491;-69
2022/09/13 11:27:24;;;;;;;4.60;0.40;;;;;;;22.41;27.00;100886.44;4973215;28;20050;-69
2022/09/13 11:30:11;;;;;;;1.27;0.20;;;;;;;22.16;27.51;100888.66;4978379;28;20059;-69
2022/09/13 11:32:36;;;;;;;5.05;0.20;;;;;;;22.16;28.09;100888.66;4973623;28;20087;-71
2022/09/13 11:35:17;;;;;;;2.55;0.25;;;;;;;22.68;27.99;100882.25;4973995;28;20074;-71
2022/09/13 11:37:54;;;;;;;2.28;0.25;;;;;;;22.61;28.31;100887.28;4971361;28;20053;-70
2022/09/13 11:40:38;;;;;;;2.58;0.30;;;;;;;22.17;30.55;100890.31;4973165;28;20109;-69
2022/09/13 11:43:41;;;;;;;3.97;0.10;;;;;;;22.30;29.70;100883.91;4973417;28;20050;-69
2022/09/13 11:46:12;;;;;;;1.10;0.20;;;;;;;22.03;30.08;100879.22;4989975;28;20609;-69